Aérodrome :
LOGIN :

S'inscrire | Disclaimer

   EN    FR    IT 

 










Légende :    VFR   VFR Marginal   IFR   IFR Intensif   IFR Très Intensif
Visi : 
Plafond : 
>= 8 km
>= 3000ft
5 à 8 km
1000 à 3000 ft
1500m à 5 km
500 à 1000 ft
800 à 1500m
200 à 500 ft
< 800m
< 200 ft
Symboles :   Orages  Brouillard  Fortes neiges  Fortes précipitations  Vent > 20 kt
SIGMETs :   Divers  Orages  Givrage  Turbulence  Onde Orograph.  Cendres Volcan.







- Altitude de l'aérodrome : 1411 ft
- Code IATA : GVA


LSGG - Genève Cointrin

DERNIER METAR :
  • 300250Z AUTO VRB01KT 9999 NCD 02/01 Q1013 NOSIG

METARs EXPIRÉS :
  • 300220Z AUTO 27001KT 9999 NCD 02/01 Q1013 NOSIG
  • 300150Z AUTO VRB01KT 9999 NCD 02/01 Q1014 NOSIG
  • 300120Z AUTO 00000KT 9999 NCD 03/01 Q1014 NOSIG
  • 300050Z AUTO VRB01KT 9999 NCD 03/01 Q1014 NOSIG
  • 300020Z AUTO VRB01KT 9999 NCD 03/01 Q1014 NOSIG

TAF TAF LSGG
Valide du 30 à 03h jusqu'au 01 à 09h UTC


300225Z 3003/0109 VRB03KT CAVOK TX17/3015Z TN02/3005Z TN06/0105Z
BECMG 3007/3010 04007KT 9999 FEW040 SCT150
BECMG 3014/3016 SCT090 BKN150
BECMG 3017/3019 VRB03KT
BECMG 3021/3023 230010G20KT 9000 RA FEW020 BKN040 OVC060
PROB40
TEMPO 0100/0109 5000 +RA
ATIS : +41 22 417 40 81
Pas de NOTAMs connus pour ce terrain.



MET'MAP, la Météo Aéronautique d'un coup d'oeil ! - Copyright ORBIFLY Décembre 2007 - Disclaimer

ORBIFLY MET'MAP TEAM :

Programmation & Développement : Alexandra Zaïnal
Conception & Développement : Baudouin d'Aumeries
Co-Programmation & Développement : Marc-Olivier Méhu
Soutien technique & logistique : Manuel Goepfert

Contact : metmap@orbifly.com




SOURCES & CREDITS :

   NOAA